createdAt,value
2022-12-06T00:00:12.068Z,15.68
2022-12-06T00:02:41.935Z,15.27
2022-12-06T00:05:10.241Z,15.02
2022-12-06T00:07:38.367Z,14.77
2022-12-06T00:10:08.310Z,14.25
2022-12-06T00:12:36.519Z,14.18
2022-12-06T00:15:05.024Z,14.10
2022-12-06T00:17:33.088Z,14.70
2022-12-06T00:20:02.822Z,13.70
2022-12-06T00:22:31.109Z,13.05
2022-12-06T00:24:59.316Z,13.48
2022-12-06T00:27:27.421Z,13.55
2022-12-06T00:29:55.601Z,13.40
2022-12-06T00:32:23.711Z,12.75
2022-12-06T00:34:51.956Z,13.10
2022-12-06T00:37:21.436Z,12.25
2022-12-06T00:39:49.601Z,12.02
2022-12-06T00:42:17.701Z,12.30
2022-12-06T00:44:45.868Z,12.70
2022-12-06T00:47:14.034Z,11.70
2022-12-06T00:49:42.165Z,12.70
2022-12-06T00:52:10.253Z,12.00
2022-12-06T00:54:39.834Z,11.50
2022-12-06T00:57:08.145Z,11.75
2022-12-06T00:59:36.226Z,11.73
2022-12-06T01:02:04.427Z,11.30
2022-12-06T01:04:32.593Z,11.15
2022-12-06T01:07:01.300Z,10.63
2022-12-06T01:09:31.090Z,11.15
2022-12-06T01:12:00.660Z,11.05
2022-12-06T01:14:29.013Z,10.13
2022-12-06T01:16:57.235Z,10.70
2022-12-06T01:19:25.421Z,10.15
2022-12-06T01:21:53.589Z,10.73
2022-12-06T01:24:21.757Z,10.35
2022-12-06T01:26:49.957Z,10.38
2022-12-06T01:29:19.646Z,9.85
2022-12-06T01:31:47.813Z,10.52
2022-12-06T01:34:17.073Z,9.93
2022-12-06T01:36:45.272Z,9.63
2022-12-06T01:39:13.789Z,10.30
2022-12-06T01:41:42.061Z,9.68
2022-12-06T01:44:42.383Z,9.63
2022-12-06T01:47:16.417Z,9.63
2022-12-06T01:49:45.455Z,8.85
2022-12-06T01:52:13.805Z,8.77
2022-12-06T01:54:41.957Z,8.73
2022-12-06T01:57:10.613Z,8.90
2022-12-06T01:59:38.771Z,8.77
2022-12-06T02:02:08.864Z,8.77
2022-12-06T02:04:37.126Z,7.60
2022-12-06T02:07:05.204Z,7.57
2022-12-06T02:09:33.334Z,7.55
2022-12-06T02:12:01.488Z,7.63
2022-12-06T02:14:32.256Z,7.45
2022-12-06T02:17:21.549Z,7.05
2022-12-06T02:20:26.305Z,7.25
2022-12-06T02:23:28.997Z,7.30
2022-12-06T02:26:21.440Z,7.22
2022-12-06T02:29:31.597Z,7.38
2022-12-06T02:32:01.705Z,7.07
2022-12-06T02:34:32.300Z,6.68
2022-12-06T02:37:02.209Z,6.30
2022-12-06T02:39:31.933Z,6.72
2022-12-06T02:42:01.855Z,6.57
2022-12-06T02:44:33.358Z,6.05
2022-12-06T02:47:03.182Z,7.13
2022-12-06T02:49:33.286Z,6.32
2022-12-06T02:52:01.580Z,6.88
2022-12-06T02:54:29.777Z,6.53
2022-12-06T02:56:58.345Z,6.13
2022-12-06T02:59:26.654Z,6.15
2022-12-06T03:01:57.698Z,6.40
2022-12-06T03:04:49.181Z,5.95
2022-12-06T03:07:30.958Z,6.40
2022-12-06T03:10:11.113Z,6.10
2022-12-06T03:12:41.106Z,5.88
2022-12-06T03:15:12.114Z,6.03
2022-12-06T03:17:42.243Z,5.90
2022-12-06T03:20:14.583Z,5.53
2022-12-06T03:22:43.974Z,5.80
2022-12-06T03:25:12.298Z,5.68
2022-12-06T03:27:41.015Z,5.70
2022-12-06T03:30:11.483Z,5.30
2022-12-06T03:32:41.311Z,5.20
2022-12-06T03:35:11.973Z,5.28
2022-12-06T03:37:43.590Z,5.45
2022-12-06T03:40:13.999Z,4.93
2022-12-06T03:42:42.269Z,5.07
2022-12-06T03:45:12.182Z,5.30
2022-12-06T03:47:43.680Z,4.95
2022-12-06T03:50:13.248Z,4.95
2022-12-06T03:52:43.011Z,4.88
2022-12-06T03:55:11.289Z,4.90
2022-12-06T03:57:39.799Z,4.60
2022-12-06T04:00:09.673Z,5.18
2022-12-06T04:02:39.630Z,4.70
2022-12-06T04:05:08.109Z,5.15
2022-12-06T04:07:36.341Z,4.75
2022-12-06T04:10:07.235Z,4.47
2022-12-06T04:12:53.026Z,4.47
2022-12-06T04:15:21.760Z,4.82
2022-12-06T04:18:07.408Z,4.80
2022-12-06T04:20:49.459Z,4.15
2022-12-06T04:23:17.761Z,4.28
2022-12-06T04:25:47.242Z,4.30
2022-12-06T04:28:33.113Z,4.40
2022-12-06T04:31:22.390Z,4.50
2022-12-06T04:34:08.259Z,4.22
2022-12-06T04:36:54.136Z,4.22
2022-12-06T04:39:22.345Z,4.20
2022-12-06T04:42:09.317Z,4.30
2022-12-06T04:44:37.533Z,4.22
2022-12-06T04:47:05.922Z,4.30
2022-12-06T04:49:34.333Z,4.03
2022-12-06T04:52:02.404Z,4.15
2022-12-06T04:54:31.302Z,4.57
2022-12-06T04:57:01.079Z,3.83
2022-12-06T04:59:29.705Z,3.75
2022-12-06T05:01:57.903Z,3.70
2022-12-06T05:04:26.131Z,3.90
2022-12-06T05:06:54.306Z,3.85
2022-12-06T05:09:22.628Z,3.63
2022-12-06T05:11:50.704Z,3.60
2022-12-06T05:14:20.333Z,3.42
2022-12-06T05:16:48.542Z,3.85
2022-12-06T05:19:16.701Z,3.30
2022-12-06T05:21:45.045Z,3.15
2022-12-06T05:24:14.281Z,3.60
2022-12-06T05:26:42.544Z,3.22
2022-12-06T05:29:10.665Z,3.60
2022-12-06T05:31:40.234Z,3.42
2022-12-06T05:34:08.413Z,3.30
2022-12-06T05:36:36.537Z,3.30
2022-12-06T05:39:04.873Z,3.40
2022-12-06T05:41:32.997Z,3.08
2022-12-06T05:44:01.128Z,3.28
2022-12-06T05:46:29.278Z,3.40
2022-12-06T05:48:58.881Z,3.40
2022-12-06T05:51:27.024Z,3.63
2022-12-06T05:53:55.222Z,3.20
2022-12-06T05:56:23.314Z,3.30
2022-12-06T05:58:51.524Z,3.30
2022-12-06T06:01:19.667Z,3.08
2022-12-06T06:03:48.186Z,3.00
2022-12-06T06:06:18.633Z,5.28
2022-12-06T06:08:46.748Z,6.95
2022-12-06T06:11:14.952Z,21.45
2022-12-06T06:13:43.133Z,26.33
2022-12-06T06:16:11.288Z,25.52
2022-12-06T06:18:39.485Z,19.08
2022-12-06T06:21:07.625Z,15.52
2022-12-06T06:23:37.171Z,16.27
2022-12-06T06:26:08.501Z,16.67
2022-12-06T06:28:36.729Z,17.63
2022-12-06T06:31:05.074Z,17.60
2022-12-06T06:33:33.256Z,22.00
2022-12-06T06:36:01.365Z,19.25
2022-12-06T06:38:29.549Z,23.20
2022-12-06T06:41:02.210Z,27.92
2022-12-06T06:43:30.504Z,25.55
2022-12-06T06:45:59.498Z,27.13
2022-12-06T06:48:29.016Z,25.17
2022-12-06T06:50:58.059Z,25.13
2022-12-06T06:53:27.709Z,23.83
2022-12-06T06:55:56.217Z,22.35
2022-12-06T06:58:25.725Z,22.70
2022-12-06T07:00:55.238Z,21.23
2022-12-06T07:03:23.718Z,23.45
2022-12-06T07:05:54.585Z,24.15
2022-12-06T07:08:23.584Z,25.50
2022-12-06T07:10:52.688Z,26.35
2022-12-06T07:13:22.800Z,26.40
2022-12-06T07:15:52.865Z,27.48
2022-12-06T07:18:21.187Z,31.30
2022-12-06T07:20:49.610Z,28.90
2022-12-06T07:23:18.044Z,30.17
2022-12-06T07:25:46.253Z,31.58
2022-12-06T07:28:14.669Z,32.17
2022-12-06T07:30:43.000Z,31.27
2022-12-06T07:33:12.817Z,32.08
2022-12-06T07:38:29.466Z,35.25
2022-12-06T07:41:04.856Z,39.03
2022-12-06T07:43:50.949Z,39.40
2022-12-06T07:46:19.383Z,39.13
2022-12-06T07:48:49.053Z,39.28
2022-12-06T07:51:17.216Z,38.53
2022-12-06T07:53:45.281Z,36.70
2022-12-06T07:56:13.533Z,36.55
2022-12-06T07:58:42.291Z,36.67
2022-12-06T08:01:10.620Z,35.05
2022-12-06T08:03:38.897Z,35.50
2022-12-06T08:06:10.952Z,33.83
2022-12-06T08:08:40.625Z,33.33
2022-12-06T08:11:09.201Z,31.45
2022-12-06T08:13:37.610Z,34.50
2022-12-06T08:16:06.872Z,32.63
2022-12-06T08:18:35.113Z,33.03
2022-12-06T08:21:03.194Z,30.08
2022-12-06T08:23:34.573Z,29.63
2022-12-06T08:26:04.777Z,28.00
2022-12-06T08:28:33.156Z,29.77
2022-12-06T08:31:03.297Z,31.23
2022-12-06T08:33:33.581Z,31.50
2022-12-06T08:36:01.747Z,33.75
2022-12-06T08:38:29.841Z,36.30
2022-12-06T08:41:00.180Z,32.45
2022-12-06T08:43:28.406Z,33.78
2022-12-06T08:45:56.550Z,31.10
2022-12-06T08:48:24.708Z,28.85
2022-12-06T08:50:52.769Z,32.65
2022-12-06T08:53:20.959Z,33.60
2022-12-06T08:56:02.298Z,32.53
2022-12-06T08:58:32.455Z,35.13
2022-12-06T09:01:00.741Z,33.72
2022-12-06T09:03:28.981Z,34.78
2022-12-06T09:05:57.262Z,40.00
2022-12-06T09:08:25.712Z,45.75
2022-12-06T09:10:54.401Z,48.72
2022-12-06T09:13:23.159Z,49.50
2022-12-06T09:15:53.267Z,50.22
2022-12-06T09:18:21.974Z,46.80
2022-12-06T09:20:50.268Z,46.08
2022-12-06T09:23:18.584Z,45.88
2022-12-06T09:25:46.937Z,45.92
2022-12-06T09:28:15.181Z,47.17
2022-12-06T09:30:43.660Z,48.78
2022-12-06T09:33:13.164Z,46.60
2022-12-06T09:35:41.426Z,49.08
2022-12-06T09:38:09.618Z,47.58
2022-12-06T09:40:43.158Z,48.50
2022-12-06T09:43:20.406Z,50.63
2022-12-06T09:45:55.636Z,48.78
2022-12-06T09:48:48.696Z,48.45
2022-12-06T09:51:23.751Z,48.15
2022-12-06T09:54:00.054Z,46.20
2022-12-06T09:56:31.889Z,48.20
2022-12-06T09:59:07.724Z,47.70
2022-12-06T10:01:43.695Z,48.25
2022-12-06T10:04:27.351Z,47.75
2022-12-06T10:06:59.036Z,47.10
2022-12-06T10:09:33.863Z,46.65
2022-12-06T10:12:10.468Z,50.45
2022-12-06T10:14:55.543Z,54.22
2022-12-06T10:17:32.736Z,53.38
2022-12-06T10:20:07.057Z,54.10
2022-12-06T10:22:42.648Z,48.47
2022-12-06T10:25:14.205Z,48.35
2022-12-06T10:27:46.565Z,48.92
2022-12-06T10:30:15.981Z,50.53
2022-12-06T10:32:53.018Z,51.80
2022-12-06T10:35:35.309Z,49.08
2022-12-06T10:38:07.722Z,50.75
2022-12-06T10:40:45.950Z,49.97
2022-12-06T10:43:17.694Z,48.85
2022-12-06T10:46:08.951Z,48.65
2022-12-06T10:48:39.853Z,47.83
2022-12-06T10:51:12.090Z,48.55
2022-12-06T10:53:44.311Z,47.42
2022-12-06T10:56:14.977Z,47.95
2022-12-06T10:58:44.849Z,48.15
2022-12-06T11:01:14.855Z,46.03
2022-12-06T11:03:44.465Z,47.05
2022-12-06T11:06:15.565Z,45.88
2022-12-06T11:08:45.297Z,46.45
2022-12-06T11:11:15.895Z,46.30
2022-12-06T11:13:45.227Z,45.40
2022-12-06T11:16:15.457Z,43.38
2022-12-06T11:18:43.763Z,45.88
2022-12-06T11:21:21.249Z,43.45
2022-12-06T11:23:53.678Z,45.90
2022-12-06T11:26:28.280Z,44.65
2022-12-06T11:29:04.338Z,46.38
2022-12-06T11:31:34.056Z,48.20
2022-12-06T11:34:02.718Z,48.03
2022-12-06T11:36:32.502Z,50.70
2022-12-06T11:39:00.981Z,50.50
2022-12-06T11:41:30.478Z,49.53
2022-12-06T11:43:58.646Z,65.63
2022-12-06T11:46:27.010Z,54.22
2022-12-06T11:48:55.300Z,53.47
2022-12-06T11:51:25.681Z,53.55
2022-12-06T11:54:14.199Z,53.58
2022-12-06T11:56:42.499Z,53.10
2022-12-06T11:59:22.856Z,51.58
2022-12-06T12:01:51.911Z,53.13
2022-12-06T12:04:41.203Z,48.63
2022-12-06T12:07:17.187Z,50.75
2022-12-06T12:09:52.966Z,50.35
2022-12-06T12:12:22.376Z,50.08
2022-12-06T12:14:56.271Z,48.85
2022-12-06T12:17:26.937Z,47.47
2022-12-06T12:19:59.396Z,48.50
2022-12-06T12:22:30.859Z,47.97
2022-12-06T12:27:49.533Z,45.78
2022-12-06T12:30:19.774Z,46.00
2022-12-06T12:32:48.554Z,45.53
2022-12-06T12:35:28.525Z,44.30
2022-12-06T12:38:00.625Z,43.83
2022-12-06T12:40:31.230Z,43.38
2022-12-06T12:43:00.469Z,42.83
2022-12-06T12:45:30.350Z,42.65
2022-12-06T12:47:59.898Z,41.72
2022-12-06T12:50:28.352Z,40.72
2022-12-06T12:52:56.550Z,42.05
2022-12-06T12:55:25.764Z,40.20
2022-12-06T12:57:56.321Z,40.40
2022-12-06T13:00:26.205Z,39.50
2022-12-06T13:02:56.797Z,39.33
2022-12-06T13:05:35.389Z,38.83
2022-12-06T13:08:07.304Z,37.60
2022-12-06T13:10:36.862Z,36.90
2022-12-06T13:13:07.937Z,36.55
2022-12-06T13:15:37.217Z,36.80
2022-12-06T13:18:08.484Z,37.08
2022-12-06T13:20:36.845Z,35.10
2022-12-06T13:23:07.138Z,33.72
2022-12-06T13:25:35.324Z,24.77
2022-12-06T13:28:05.775Z,25.05
2022-12-06T13:30:35.933Z,23.42
2022-12-06T13:33:05.884Z,21.65
2022-12-06T13:35:36.061Z,21.38
2022-12-06T13:38:04.633Z,21.83
2022-12-06T13:40:48.385Z,21.52
2022-12-06T13:43:56.788Z,21.30
2022-12-06T13:46:31.281Z,21.73
2022-12-06T13:49:00.647Z,21.15
2022-12-06T13:51:46.912Z,20.15
2022-12-06T13:54:32.116Z,20.52
2022-12-06T13:57:00.698Z,20.90
2022-12-06T13:59:38.379Z,20.05
2022-12-06T14:02:51.499Z,19.40
2022-12-06T14:08:27.715Z,20.15
2022-12-06T14:11:09.180Z,18.65
2022-12-06T14:13:37.271Z,18.67
2022-12-06T14:16:05.550Z,17.45
2022-12-06T14:18:33.674Z,17.73
2022-12-06T14:21:02.831Z,18.58
2022-12-06T14:23:34.430Z,17.45
2022-12-06T14:26:19.769Z,17.23
2022-12-06T14:28:48.065Z,18.15
2022-12-06T14:31:22.689Z,17.23
2022-12-06T14:33:50.994Z,16.48
2022-12-06T14:36:21.365Z,15.85
2022-12-06T14:39:00.683Z,16.38
2022-12-06T14:41:51.326Z,17.33
2022-12-06T14:44:19.939Z,16.20
2022-12-06T14:46:48.729Z,16.17
2022-12-06T14:49:36.529Z,15.80
2022-12-06T14:52:17.389Z,15.32
2022-12-06T14:54:47.013Z,15.80
2022-12-06T14:57:27.420Z,15.05
2022-12-06T15:00:26.317Z,14.55
2022-12-06T15:03:14.581Z,15.77
2022-12-06T15:05:43.832Z,14.77
2022-12-06T15:08:34.156Z,14.80
2022-12-06T15:11:04.946Z,14.45
2022-12-06T15:13:32.122Z,14.25
2022-12-06T15:16:03.383Z,14.65
2022-12-06T15:18:33.850Z,14.23
2022-12-06T15:21:02.044Z,13.63
2022-12-06T15:23:38.242Z,13.57
2022-12-06T15:26:08.768Z,13.52
2022-12-06T15:28:36.993Z,13.65
2022-12-06T15:31:05.299Z,13.57
2022-12-06T15:33:33.469Z,13.18
2022-12-06T15:36:02.075Z,12.73
2022-12-06T15:38:30.186Z,12.60
2022-12-06T15:40:58.297Z,12.40
2022-12-06T15:43:32.249Z,11.82
2022-12-06T15:46:02.224Z,11.93
2022-12-06T15:48:30.579Z,11.95
2022-12-06T15:50:59.915Z,11.75
2022-12-06T15:53:29.166Z,11.57
2022-12-06T15:55:57.610Z,10.80
2022-12-06T15:58:26.230Z,11.02
2022-12-06T16:00:57.758Z,11.45
2022-12-06T16:03:26.285Z,11.95
2022-12-06T16:05:54.616Z,11.65
2022-12-06T16:08:22.936Z,11.10
2022-12-06T16:13:39.421Z,11.05
2022-12-06T16:16:09.549Z,11.38
2022-12-06T16:18:37.837Z,10.98
2022-12-06T16:21:06.293Z,10.18
2022-12-06T16:26:41.955Z,10.88
2022-12-06T16:29:13.057Z,11.18
2022-12-06T16:31:42.917Z,11.00
2022-12-06T16:34:11.333Z,11.07
2022-12-06T16:36:55.035Z,10.43
2022-12-06T16:39:23.281Z,10.65
2022-12-06T16:41:51.577Z,10.10
2022-12-06T16:44:19.681Z,9.60
2022-12-06T16:46:49.808Z,10.23
2022-12-06T16:49:45.328Z,10.05
2022-12-06T16:52:08.285Z,9.15
2022-12-06T16:54:36.473Z,9.75
2022-12-06T16:57:04.782Z,9.30
2022-12-06T16:59:32.936Z,10.00
2022-12-06T17:02:02.542Z,9.60
2022-12-06T17:04:31.592Z,10.20
2022-12-06T17:06:59.721Z,9.93
2022-12-06T17:09:27.806Z,10.05
2022-12-06T17:12:06.836Z,9.65
2022-12-06T17:14:36.132Z,9.38
2022-12-06T17:17:05.681Z,9.25
2022-12-06T17:19:34.007Z,9.00
2022-12-06T17:22:03.346Z,10.35
2022-12-06T17:24:32.809Z,20.00
2022-12-06T17:27:01.022Z,18.58
2022-12-06T17:29:29.934Z,20.50
2022-12-06T17:31:58.225Z,20.65
2022-12-06T17:34:28.053Z,20.95
2022-12-06T17:36:57.522Z,21.08
2022-12-06T17:39:25.879Z,25.20
2022-12-06T17:42:11.402Z,25.42
2022-12-06T17:44:40.144Z,25.48
2022-12-06T17:47:08.425Z,25.20
2022-12-06T17:49:38.672Z,25.33
2022-12-06T17:52:07.082Z,27.13
2022-12-06T17:54:35.307Z,28.73
2022-12-06T17:57:03.603Z,31.85
2022-12-06T17:59:32.851Z,30.85
2022-12-06T18:02:18.744Z,29.60
2022-12-06T18:04:48.940Z,31.20
2022-12-06T18:07:17.385Z,35.55
2022-12-06T18:09:45.549Z,39.95
2022-12-06T18:12:14.126Z,39.88
2022-12-06T18:14:42.211Z,40.10
2022-12-06T18:17:10.458Z,39.72
2022-12-06T18:19:40.381Z,40.25
2022-12-06T18:22:10.498Z,38.97
2022-12-06T18:24:38.700Z,38.38
2022-12-06T18:27:06.797Z,40.13
2022-12-06T18:29:34.979Z,36.63
2022-12-06T18:32:03.338Z,37.75
2022-12-06T18:34:32.037Z,37.90
2022-12-06T18:37:00.137Z,39.42
2022-12-06T18:39:29.701Z,38.47
2022-12-06T18:41:57.923Z,37.40
2022-12-06T18:44:26.043Z,37.17
2022-12-06T18:46:54.241Z,36.30
2022-12-06T18:49:22.315Z,37.40
2022-12-06T18:51:50.534Z,39.45
2022-12-06T18:54:18.658Z,40.85
2022-12-06T18:56:48.381Z,43.40
2022-12-06T18:59:16.884Z,43.28
2022-12-06T19:01:45.200Z,44.67
2022-12-06T19:04:16.704Z,46.85
2022-12-06T19:06:45.560Z,46.78
2022-12-06T19:09:15.636Z,44.97
2022-12-06T19:11:45.944Z,46.60
2022-12-06T19:14:16.205Z,46.78
2022-12-06T19:16:45.258Z,48.58
2022-12-06T19:19:16.516Z,53.13
2022-12-06T19:21:46.226Z,53.55
2022-12-06T19:24:15.898Z,52.97
2022-12-06T19:26:45.632Z,63.85
2022-12-06T19:29:15.584Z,61.33
2022-12-06T19:31:43.922Z,62.15
2022-12-06T19:34:18.441Z,61.50
2022-12-06T19:36:46.768Z,63.42
2022-12-06T19:39:15.080Z,63.53
2022-12-06T19:42:00.929Z,61.33
2022-12-06T19:44:30.918Z,61.55
2022-12-06T19:46:59.432Z,60.97
2022-12-06T19:49:27.922Z,54.90
2022-12-06T19:51:56.211Z,56.22
2022-12-06T19:54:25.179Z,56.92
2022-12-06T19:56:54.606Z,56.53
2022-12-06T19:59:22.944Z,56.50
2022-12-06T20:01:54.331Z,56.03
2022-12-06T20:04:23.954Z,53.45
2022-12-06T20:06:52.893Z,52.60
2022-12-06T20:09:21.460Z,50.47
2022-12-06T20:12:06.039Z,50.60
2022-12-06T20:14:36.288Z,49.30
2022-12-06T20:17:09.429Z,49.33
2022-12-06T20:19:39.352Z,48.05
2022-12-06T20:22:08.245Z,48.20
2022-12-06T20:24:36.677Z,46.58
2022-12-06T20:27:05.694Z,46.47
2022-12-06T20:29:33.960Z,46.28
2022-12-06T20:32:02.489Z,44.20
2022-12-06T20:34:34.455Z,43.67
2022-12-06T20:37:05.080Z,43.17
2022-12-06T20:39:36.054Z,42.28
2022-12-06T20:42:06.033Z,41.30
2022-12-06T20:44:34.476Z,40.05
2022-12-06T20:47:02.842Z,39.60
2022-12-06T20:49:32.647Z,39.85
2022-12-06T20:52:02.955Z,37.78
2022-12-06T20:54:31.442Z,38.72
2022-12-06T20:56:59.762Z,37.90
2022-12-06T20:59:29.652Z,37.55
2022-12-06T21:01:58.189Z,36.45
2022-12-06T21:04:28.163Z,35.47
2022-12-06T21:06:58.313Z,34.00
2022-12-06T21:09:26.837Z,35.83
2022-12-06T21:11:55.053Z,33.80
2022-12-06T21:14:23.935Z,33.10
2022-12-06T21:16:52.264Z,32.83
2022-12-06T21:19:20.809Z,31.83
2022-12-06T21:21:50.668Z,32.13
2022-12-06T21:24:21.262Z,31.17
2022-12-06T21:26:50.054Z,31.75
2022-12-06T21:29:18.808Z,31.05
2022-12-06T21:31:47.152Z,30.48
2022-12-06T21:34:15.749Z,29.95
2022-12-06T21:36:44.117Z,29.30
2022-12-06T21:39:12.829Z,27.70
2022-12-06T21:41:42.842Z,28.63
2022-12-06T21:44:11.196Z,27.95
2022-12-06T21:46:39.660Z,26.75
2022-12-06T21:49:08.015Z,26.80
2022-12-06T21:51:36.636Z,26.42
2022-12-06T21:54:05.094Z,26.60
2022-12-06T21:56:35.065Z,25.35
2022-12-06T21:59:04.830Z,24.98
2022-12-06T22:01:33.397Z,25.92
2022-12-06T22:04:03.797Z,24.48
2022-12-06T22:06:32.768Z,23.98
2022-12-06T22:09:01.827Z,25.98
2022-12-06T22:11:30.312Z,25.73
2022-12-06T22:14:00.033Z,25.85
2022-12-06T22:16:30.015Z,26.65
2022-12-06T22:18:58.717Z,26.55
2022-12-06T22:21:28.241Z,26.75
2022-12-06T22:23:57.545Z,25.48
2022-12-06T22:26:28.355Z,27.02
2022-12-06T22:28:57.029Z,27.50
2022-12-06T22:31:26.171Z,27.58
2022-12-06T22:33:55.967Z,28.10
2022-12-06T22:36:24.261Z,27.17
2022-12-06T22:38:52.825Z,29.10
2022-12-06T22:41:21.383Z,29.55
2022-12-06T22:43:51.285Z,29.77
2022-12-06T22:46:19.744Z,29.35
2022-12-06T22:48:48.118Z,31.33
2022-12-06T22:51:18.762Z,28.98
2022-12-06T22:53:48.336Z,31.00
2022-12-06T22:56:16.768Z,31.85
2022-12-06T22:58:45.024Z,31.10
2022-12-06T23:01:16.364Z,31.52
2022-12-06T23:03:45.580Z,31.50
2022-12-06T23:06:14.079Z,31.25
2022-12-06T23:08:43.953Z,31.63
2022-12-06T23:11:13.908Z,31.67
2022-12-06T23:13:42.481Z,31.95
2022-12-06T23:16:12.345Z,32.60
2022-12-06T23:18:40.820Z,31.63
2022-12-06T23:21:09.984Z,32.60
2022-12-06T23:23:38.493Z,33.10
2022-12-06T23:26:09.710Z,32.85
2022-12-06T23:28:38.061Z,33.42
2022-12-06T23:31:07.384Z,33.83
2022-12-06T23:33:35.797Z,33.35
2022-12-06T23:36:05.883Z,32.45
2022-12-06T23:38:34.334Z,32.15
2022-12-06T23:41:03.988Z,30.52
2022-12-06T23:43:33.908Z,31.90
2022-12-06T23:46:07.206Z,31.85
2022-12-06T23:48:36.407Z,31.63
2022-12-06T23:51:05.540Z,31.20
2022-12-06T23:53:33.805Z,32.00
2022-12-06T23:56:02.769Z,30.83
2022-12-06T23:58:31.007Z,30.25
